Time;durP1;ratioP1;P1;durP2;ratioP2;P2;SDS_P1;SDS_P2;PMS_P1;PMS_P2;Temp;Humidity;BMP_temperature;BMP_pressure;BME280_temperature;BME280_humidity;BME280_pressure;Samples;Min_cycle;Max_cycle;Signal;HPM_P1;HPM_P2
2022/03/19 00:00:19;;;;;;;48.20;19.87;;;;;;;-0.26;50.15;102753.22;4185950;28;20242;-68
2022/03/19 00:02:46;;;;;;;48.67;19.40;;;;;;;-0.17;49.14;102751.38;4197745;28;20233;-65
2022/03/19 00:05:13;;;;;;;52.33;18.93;;;;;;;-0.15;48.13;102740.00;4197035;28;20238;-67
2022/03/19 00:07:40;;;;;;;49.03;17.83;;;;;;;-0.14;48.37;102746.97;4201395;28;20354;-67
2022/03/19 00:10:08;;;;;;;46.83;18.20;;;;;;;-0.19;48.87;102743.53;4204217;28;20248;-67
2022/03/19 00:12:38;;;;;;;47.80;17.47;;;;;;;-0.17;49.09;102741.75;4205876;28;20235;-67
2022/03/19 00:15:07;;;;;;;43.77;17.40;;;;;;;-0.25;49.59;102743.63;4198553;28;20380;-64
2022/03/19 00:17:34;;;;;;;48.23;17.87;;;;;;;-0.41;50.25;102752.53;4199539;28;20256;-65
2022/03/19 00:20:00;;;;;;;45.03;18.10;;;;;;;-0.43;50.76;102745.56;4192249;28;21253;-66
2022/03/19 00:22:27;;;;;;;46.43;18.27;;;;;;;-0.38;50.42;102739.41;4185285;28;20284;-67
2022/03/19 00:24:54;;;;;;;42.93;17.83;;;;;;;-0.43;50.08;102742.94;4179500;28;20822;-66
2022/03/19 00:27:20;;;;;;;39.23;17.17;;;;;;;-0.25;49.21;102730.53;4192527;28;20236;-66
2022/03/19 00:29:49;;;;;;;46.17;17.80;;;;;;;-0.44;49.89;102732.50;4194325;28;20229;-64
2022/03/19 00:32:16;;;;;;;42.70;17.20;;;;;;;-0.53;50.78;102737.84;4187490;28;26590;-64
2022/03/19 00:34:42;;;;;;;46.10;17.93;;;;;;;-0.48;50.72;102736.91;4191660;28;20246;-66
2022/03/19 00:37:09;;;;;;;47.53;17.50;;;;;;;-0.39;50.00;102732.47;4184067;28;20237;-66
2022/03/19 00:39:36;;;;;;;38.63;16.37;;;;;;;-0.35;50.33;102728.91;4190547;28;20241;-66
2022/03/19 00:42:02;;;;;;;42.53;17.47;;;;;;;-0.51;50.93;102736.09;4189033;28;20244;-67
2022/03/19 00:44:29;;;;;;;48.50;17.47;;;;;;;-0.47;50.81;102738.66;4189102;28;20565;-64
2022/03/19 00:46:56;;;;;;;40.87;17.97;;;;;;;-0.34;51.55;102733.28;4187199;28;25714;-67
2022/03/19 00:49:23;;;;;;;46.13;18.77;;;;;;;-0.43;51.82;102736.84;4200702;28;26507;-66
2022/03/19 00:51:49;;;;;;;42.60;17.10;;;;;;;-0.39;51.23;102735.09;4185203;28;20388;-67
2022/03/19 00:54:16;;;;;;;47.27;18.27;;;;;;;-0.54;52.57;102731.75;4195320;28;20229;-66
2022/03/19 00:56:42;;;;;;;42.50;17.03;;;;;;;-0.53;51.96;102723.03;4195612;28;21232;-65
2022/03/19 00:59:09;;;;;;;41.77;17.57;;;;;;;-0.47;52.34;102722.97;4191414;28;20239;-66
2022/03/19 01:01:35;;;;;;;44.53;18.70;;;;;;;-0.44;51.70;102724.66;4193346;28;20233;-65
2022/03/19 01:04:02;;;;;;;49.03;19.27;;;;;;;-0.64;52.43;102719.66;4184741;28;20225;-67
2022/03/19 01:06:29;;;;;;;42.60;17.83;;;;;;;-0.82;53.29;102715.50;4195694;28;20924;-67
2022/03/19 01:08:56;;;;;;;44.63;17.40;;;;;;;-0.86;53.63;102713.78;4186123;28;20243;-66
2022/03/19 01:11:23;;;;;;;41.53;17.77;;;;;;;-0.87;53.22;102709.44;4189049;28;20244;-66
2022/03/19 01:13:50;;;;;;;53.50;18.87;;;;;;;-1.08;53.57;102710.50;4190898;28;20253;-66
2022/03/19 01:16:20;;;;;;;45.43;18.77;;;;;;;-1.19;53.42;102705.38;4198638;28;21619;-68
2022/03/19 01:18:48;;;;;;;41.90;18.13;;;;;;;-1.19;53.86;102701.91;4173992;28;22596;-67
2022/03/19 01:21:16;;;;;;;52.07;20.03;;;;;;;-1.22;53.08;102710.63;4196226;28;21721;-66
2022/03/19 01:23:43;;;;;;;53.17;19.17;;;;;;;-1.26;52.53;102706.31;4191571;28;21127;-67
2022/03/19 01:26:10;;;;;;;50.27;18.53;;;;;;;-1.25;52.40;102710.66;4188857;28;21244;-66
2022/03/19 01:28:36;;;;;;;52.60;18.50;;;;;;;-1.23;51.97;102718.50;4190654;28;20307;-66
2022/03/19 01:31:03;;;;;;;45.03;17.63;;;;;;;-1.14;51.31;102718.41;4187886;28;23070;-66
2022/03/19 01:33:29;;;;;;;46.63;17.63;;;;;;;-1.05;51.68;102720.94;4179055;28;23354;-65
2022/03/19 01:35:56;;;;;;;48.20;18.10;;;;;;;-0.96;51.01;102726.09;4190011;28;20558;-67
2022/03/19 01:38:22;;;;;;;48.93;18.23;;;;;;;-0.93;50.92;102727.81;4172362;28;20330;-68
2022/03/19 01:40:49;;;;;;;43.67;17.13;;;;;;;-0.88;50.90;102726.00;4178617;28;20615;-67
2022/03/19 01:43:15;;;;;;;48.27;18.50;;;;;;;-0.87;50.96;102723.38;4193033;28;21802;-67
2022/03/19 01:45:42;;;;;;;41.50;17.87;;;;;;;-0.79;50.95;102725.06;4192133;28;20658;-69
2022/03/19 01:48:08;;;;;;;45.43;18.77;;;;;;;-0.74;50.69;102721.50;4182621;28;20228;-68
2022/03/19 01:50:35;;;;;;;42.27;18.40;;;;;;;-0.83;50.53;102718.13;4180098;28;20275;-66
2022/03/19 01:53:02;;;;;;;42.47;16.83;;;;;;;-0.90;50.82;102723.41;4179880;28;20238;-67
2022/03/19 01:55:28;;;;;;;42.60;17.63;;;;;;;-0.91;51.17;102723.44;4184992;28;20247;-65
2022/03/19 01:57:56;;;;;;;39.67;16.20;;;;;;;-0.98;51.27;102711.31;4186692;28;20396;-66
2022/03/19 02:00:24;;;;;;;44.13;17.80;;;;;;;-0.97;51.86;102719.09;4199262;28;20229;-65
2022/03/19 02:02:52;;;;;;;44.33;18.93;;;;;;;-1.16;51.38;102717.56;4172645;28;20244;-66
2022/03/19 02:05:21;;;;;;;44.73;18.27;;;;;;;-1.24;52.07;102714.13;4181231;28;20233;-67
2022/03/19 02:07:48;;;;;;;44.37;18.47;;;;;;;-1.13;51.84;102714.91;4198196;28;20254;-67
2022/03/19 02:10:16;;;;;;;45.40;18.37;;;;;;;-1.03;52.11;102721.81;4175076;28;20721;-65
2022/03/19 02:12:44;;;;;;;46.70;18.30;;;;;;;-1.03;52.26;102726.13;4195285;28;20236;-66
2022/03/19 02:15:13;;;;;;;42.20;18.43;;;;;;;-1.06;53.00;102719.19;4195319;28;20332;-67
2022/03/19 02:17:39;;;;;;;53.03;20.10;;;;;;;-1.20;52.54;102723.69;4180004;28;20240;-66
2022/03/19 02:20:07;;;;;;;46.40;17.60;;;;;;;-1.09;51.95;102714.88;4176367;28;21006;-68
2022/03/19 02:22:33;;;;;;;46.80;18.97;;;;;;;-1.21;53.28;102717.59;4175039;28;20292;-69
2022/03/19 02:27:46;;;;;;;45.03;17.63;;;;;;;-1.14;53.19;102719.28;4188993;28;20253;-67
2022/03/19 02:30:15;;;;;;;57.77;19.67;;;;;;;-1.11;53.21;102718.38;4182338;28;20768;-66
2022/03/19 02:32:44;;;;;;;46.60;18.80;;;;;;;-0.94;52.60;102724.28;4178775;28;20240;-67
2022/03/19 02:35:11;;;;;;;48.03;18.27;;;;;;;-1.10;52.23;102725.31;4192762;28;20302;-66
2022/03/19 02:37:45;;;;;;;45.93;17.87;;;;;;;-1.16;52.65;102720.16;4183215;28;20287;-66
2022/03/19 02:40:14;;;;;;;47.33;18.33;;;;;;;-1.23;52.65;102721.09;4180749;28;20239;-66
2022/03/19 02:42:43;;;;;;;40.27;17.23;;;;;;;-1.14;53.48;102726.25;4181124;28;20236;-66
2022/03/19 02:45:09;;;;;;;47.33;18.33;;;;;;;-1.13;53.46;102733.19;4197378;28;20697;-69
2022/03/19 02:47:56;;;;;;;47.53;19.13;;;;;;;-1.15;53.63;102728.00;4191674;28;22222;-69
2022/03/19 02:50:25;;;;;;;48.73;18.83;;;;;;;-1.32;53.77;102730.72;4189012;28;20274;-68
2022/03/19 02:52:52;;;;;;;54.47;19.73;;;;;;;-1.37;54.31;102727.28;4189698;28;20574;-66
2022/03/19 02:55:18;;;;;;;47.20;19.80;;;;;;;-1.48;54.36;102731.72;4187915;28;22970;-65
2022/03/19 02:57:45;;;;;;;49.93;18.70;;;;;;;-1.44;54.77;102730.84;4191228;28;22620;-65
2022/03/19 03:00:12;;;;;;;50.13;18.40;;;;;;;-1.53;55.07;102730.91;4192178;28;20415;-64
2022/03/19 03:02:38;;;;;;;49.97;18.67;;;;;;;-1.65;55.34;102736.22;4187787;28;20358;-66
2022/03/19 03:05:05;;;;;;;49.17;18.87;;;;;;;-1.85;55.75;102739.81;4187338;28;21855;-64
2022/03/19 03:07:32;;;;;;;48.90;19.33;;;;;;;-2.06;56.88;102743.41;4190215;28;21942;-64
2022/03/19 03:09:58;;;;;;;54.53;19.73;;;;;;;-1.96;56.12;102744.22;4211925;28;20237;-63
2022/03/19 03:12:25;;;;;;;59.73;20.47;;;;;;;-1.91;55.90;102737.22;4178449;28;20237;-65
2022/03/19 03:14:51;;;;;;;54.40;20.33;;;;;;;-1.57;54.65;102734.41;4189830;28;20332;-64
2022/03/19 03:17:18;;;;;;;48.60;18.47;;;;;;;-1.50;54.08;102733.47;4202919;28;20240;-65
2022/03/19 03:19:44;;;;;;;46.83;18.20;;;;;;;-1.35;54.28;102737.75;4211274;28;21240;-64
2022/03/19 03:22:11;;;;;;;42.67;18.17;;;;;;;-1.27;53.41;102739.38;4196855;28;20230;-65
2022/03/19 03:24:37;;;;;;;51.37;19.27;;;;;;;-1.21;53.77;102735.03;4196110;28;20463;-64
2022/03/19 03:27:04;;;;;;;50.93;19.77;;;;;;;-1.17;53.92;102737.59;4190491;28;20246;-64
2022/03/19 03:29:30;;;;;;;51.63;20.73;;;;;;;-1.12;54.31;102732.34;4193707;28;20229;-65
2022/03/19 03:31:57;;;;;;;54.40;20.90;;;;;;;-1.14;54.62;102736.69;4191526;28;20252;-64
2022/03/19 03:34:23;;;;;;;55.03;21.67;;;;;;;-1.10;55.25;102751.44;4202316;28;20375;-64
2022/03/19 03:36:50;;;;;;;53.70;21.30;;;;;;;-1.30;55.35;102738.56;4201828;28;20241;-65
2022/03/19 03:39:16;;;;;;;45.27;19.97;;;;;;;-1.39;55.23;102744.72;4191462;28;21854;-63
2022/03/19 03:41:43;;;;;;;52.40;18.30;;;;;;;-1.53;55.92;102741.34;4192340;28;20337;-63
2022/03/19 03:44:09;;;;;;;56.83;19.23;;;;;;;-1.53;55.71;102743.94;4192229;28;20637;-64
2022/03/19 03:46:36;;;;;;;54.10;21.30;;;;;;;-1.39;55.31;102749.94;4195798;28;23320;-66
2022/03/19 03:49:02;;;;;;;54.03;21.33;;;;;;;-1.35;55.63;102750.78;4195016;28;20497;-66
2022/03/19 03:51:29;;;;;;;58.37;20.77;;;;;;;-1.36;55.88;102746.44;4191910;28;25416;-67
2022/03/19 03:53:56;;;;;;;56.57;22.23;;;;;;;-1.41;56.66;102746.47;4193198;28;20230;-64
2022/03/19 03:56:22;;;;;;;62.67;23.27;;;;;;;-1.63;58.16;102740.53;4199499;28;20225;-64
2022/03/19 03:58:49;;;;;;;68.30;25.93;;;;;;;-1.60;58.24;102737.03;4191817;28;20719;-64
2022/03/19 04:01:16;;;;;;;64.67;24.73;;;;;;;-1.52;58.78;102735.25;4196599;28;20660;-65
2022/03/19 04:03:43;;;;;;;74.90;24.43;;;;;;;-1.57;58.86;102739.63;4184357;28;20295;-65
2022/03/19 04:06:10;;;;;;;64.70;24.13;;;;;;;-1.68;58.74;102737.09;4208351;28;21719;-65
2022/03/19 04:08:37;;;;;;;54.63;22.60;;;;;;;-1.74;59.25;102740.59;4188510;28;20232;-67
2022/03/19 04:11:03;;;;;;;59.87;20.17;;;;;;;-1.80;59.39;102738.03;4211669;28;20241;-65
2022/03/19 04:13:30;;;;;;;54.77;21.70;;;;;;;-1.84;59.54;102743.28;4192258;28;21304;-67
2022/03/19 04:15:57;;;;;;;46.80;20.27;;;;;;;-1.77;59.46;102747.59;4190832;28;21642;-64
2022/03/19 04:18:23;;;;;;;57.03;22.33;;;;;;;-1.80;59.10;102743.25;4196642;28;20305;-64
2022/03/19 04:20:50;;;;;;;71.37;25.17;;;;;;;-1.95;60.36;102748.53;4197845;28;20241;-66
2022/03/19 04:23:16;;;;;;;66.10;26.23;;;;;;;-2.17;61.83;102751.25;4191215;28;25547;-64
2022/03/19 04:25:43;;;;;;;67.80;26.60;;;;;;;-2.21;62.35;102751.28;4186140;28;20229;-66
2022/03/19 04:28:12;;;;;;;72.50;26.80;;;;;;;-2.06;61.75;102750.34;4198706;28;20242;-65
2022/03/19 04:30:40;;;;;;;76.47;28.93;;;;;;;-2.01;61.87;102751.19;4216869;28;20243;-64
2022/03/19 04:33:07;;;;;;;73.20;28.87;;;;;;;-1.92;61.85;102753.75;4202354;28;21115;-63
2022/03/19 04:38:22;;;;;;;94.33;33.20;;;;;;;-2.20;63.92;102751.28;4193026;28;21336;-63
2022/03/19 04:40:50;;;;;;;82.47;32.63;;;;;;;-2.15;63.66;102757.34;4185796;28;20244;-66
2022/03/19 04:43:17;;;;;;;88.07;32.37;;;;;;;-2.05;63.75;102747.72;4191897;28;20318;-67
2022/03/19 04:45:43;;;;;;;73.47;31.90;;;;;;;-1.94;62.98;102755.50;4192920;28;20235;-64
2022/03/19 04:48:10;;;;;;;88.87;33.20;;;;;;;-2.22;64.43;102753.03;4190879;28;20412;-64
2022/03/19 04:50:42;;;;;;;96.80;35.57;;;;;;;-2.31;64.96;102753.06;4207782;28;20228;-63
2022/03/19 04:53:09;;;;;;;93.27;34.57;;;;;;;-2.41;65.39;102754.81;4207063;28;20248;-67
2022/03/19 04:55:37;;;;;;;95.10;34.30;;;;;;;-2.46;65.81;102755.69;4181220;28;21267;-65
2022/03/19 04:58:04;;;;;;;103.60;37.43;;;;;;;-2.37;66.13;102755.66;4203730;28;20275;-63
2022/03/19 05:00:31;;;;;;;116.00;37.67;;;;;;;-2.45;66.64;102753.09;4189384;28;20300;-64
2022/03/19 05:03:03;;;;;;;98.33;36.93;;;;;;;-2.47;66.80;102756.56;4180232;28;20426;-64
2022/03/19 05:05:29;;;;;;;101.00;37.30;;;;;;;-2.48;66.69;102760.94;4193843;28;20871;-64
2022/03/19 05:07:56;;;;;;;113.30;39.97;;;;;;;-2.39;66.46;102760.91;4194584;28;20244;-66
2022/03/19 05:13:09;;;;;;;112.80;39.30;;;;;;;-2.35;66.38;102765.22;4208547;28;20992;-63
2022/03/19 05:15:36;;;;;;;114.03;40.00;;;;;;;-2.41;67.48;102772.19;4189164;28;20230;-64
2022/03/19 05:18:03;;;;;;;114.93;41.33;;;;;;;-2.26;66.89;102768.69;4192692;28;20238;-65
2022/03/19 05:20:33;;;;;;;119.47;40.10;;;;;;;-2.12;66.19;102770.34;4191583;28;26824;-64
2022/03/19 05:23:00;;;;;;;110.73;40.37;;;;;;;-2.00;65.18;102779.88;4194496;28;20241;-66
2022/03/19 05:25:27;;;;;;;109.20;38.83;;;;;;;-1.82;64.21;102778.94;4202253;28;20275;-65
2022/03/19 05:27:53;;;;;;;141.60;45.57;;;;;;;-1.94;64.34;102771.16;4189803;28;22364;-65
2022/03/19 05:30:22;;;;;;;120.13;42.03;;;;;;;-1.81;63.94;102782.41;4202758;28;20286;-63
2022/03/19 05:32:49;;;;;;;111.63;39.80;;;;;;;-1.70;63.19;102783.22;4200516;28;20240;-64
2022/03/19 05:35:18;;;;;;;103.77;38.33;;;;;;;-1.64;63.08;102790.13;4191990;28;20636;-64
2022/03/19 05:37:47;;;;;;;90.83;36.20;;;;;;;-1.62;62.83;102786.63;4188993;28;20461;-64
2022/03/19 05:40:14;;;;;;;90.23;33.17;;;;;;;-1.57;62.66;102792.72;4182429;28;20414;-65
2022/03/19 05:42:41;;;;;;;89.87;32.07;;;;;;;-1.52;63.09;102798.78;4193644;28;22506;-65
2022/03/19 05:45:09;;;;;;;99.90;37.13;;;;;;;-1.47;62.98;102796.13;4222029;28;21094;-67
2022/03/19 05:47:38;;;;;;;115.97;42.33;;;;;;;-1.40;62.70;102795.22;4211990;28;20233;-65
2022/03/19 05:50:06;;;;;;;103.83;39.77;;;;;;;-1.38;62.67;102798.69;4206599;28;20350;-65
2022/03/19 05:52:33;;;;;;;108.90;38.37;;;;;;;-1.23;61.43;102804.69;4196533;28;20648;-67
2022/03/19 05:55:00;;;;;;;95.03;36.20;;;;;;;-1.14;61.59;102809.84;4193406;28;20224;-64
2022/03/19 05:57:26;;;;;;;105.83;36.23;;;;;;;-1.16;60.93;102806.38;4220532;28;20270;-67
2022/03/19 05:59:56;;;;;;;106.63;36.13;;;;;;;-1.07;59.89;102816.75;4227019;28;20241;-65
2022/03/19 06:02:22;;;;;;;100.10;36.87;;;;;;;-0.83;59.57;102813.06;4192543;28;20276;-64
2022/03/19 06:04:49;;;;;;;95.30;36.40;;;;;;;-0.71;59.38;102812.09;4181215;28;20229;-62
2022/03/19 06:07:15;;;;;;;103.70;35.37;;;;;;;-0.72;59.26;102815.63;4192161;28;20237;-64
2022/03/19 06:09:42;;;;;;;89.43;33.97;;;;;;;-0.51;58.60;102814.53;4227224;28;20229;-65
2022/03/19 06:12:09;;;;;;;94.10;35.20;;;;;;;-0.32;57.53;102823.94;4181475;28;20390;-67
2022/03/19 06:14:36;;;;;;;114.13;43.03;;;;;;;-0.31;58.00;102824.78;4192755;28;21834;-66
2022/03/19 06:17:02;;;;;;;102.77;38.87;;;;;;;-0.11;58.17;102821.97;4181150;28;20485;-67
2022/03/19 06:19:29;;;;;;;93.80;36.53;;;;;;;0.01;57.46;102831.44;4191227;28;20265;-64
2022/03/19 06:21:56;;;;;;;91.40;34.27;;;;;;;-0.07;56.66;102835.00;4189404;28;20593;-64
2022/03/19 06:24:23;;;;;;;91.33;33.13;;;;;;;0.05;55.21;102838.34;4181129;28;20251;-67
2022/03/19 06:26:51;;;;;;;102.47;36.60;;;;;;;0.23;55.54;102838.13;4191339;28;20232;-65
2022/03/19 06:29:17;;;;;;;85.73;34.40;;;;;;;0.28;54.64;102838.94;4188777;28;20859;-65
2022/03/19 06:31:44;;;;;;;87.60;32.60;;;;;;;0.31;53.88;102844.13;4183124;28;20645;-69
2022/03/19 06:34:10;;;;;;;97.47;34.10;;;;;;;0.48;53.17;102848.28;4197422;28;22284;-68
2022/03/19 06:39:22;;;;;;;81.07;31.27;;;;;;;0.90;51.72;102864.31;4190235;28;20257;-69
2022/03/19 06:41:49;;;;;;;90.37;34.00;;;;;;;1.10;50.29;102863.97;4197795;28;20705;-69
2022/03/19 06:44:15;;;;;;;87.23;34.97;;;;;;;1.31;50.60;102865.38;4172893;28;20241;-69
2022/03/19 06:46:42;;;;;;;87.83;32.97;;;;;;;1.42;49.42;102869.56;4181182;28;20240;-68
2022/03/19 06:49:08;;;;;;;97.00;33.70;;;;;;;1.54;48.75;102876.34;4212462;28;20223;-69
2022/03/19 06:51:36;;;;;;;94.40;32.13;;;;;;;1.67;48.10;102875.25;4191558;28;22690;-67
2022/03/19 06:54:04;;;;;;;84.20;32.50;;;;;;;1.84;46.82;102874.09;4185139;28;20236;-72
2022/03/19 06:56:31;;;;;;;87.10;32.20;;;;;;;2.00;45.96;102878.16;4196472;28;22952;-68
2022/03/19 06:58:57;;;;;;;74.73;30.67;;;;;;;2.20;45.27;102884.78;4207479;28;21663;-69
2022/03/19 07:01:24;;;;;;;84.53;32.73;;;;;;;2.32;45.00;102881.91;4201120;28;20286;-70
2022/03/19 07:03:51;;;;;;;87.17;30.07;;;;;;;2.43;43.71;102882.53;4205524;28;20233;-70
2022/03/19 07:06:18;;;;;;;85.93;30.13;;;;;;;2.52;43.14;102887.59;4202943;28;20345;-67
2022/03/19 07:09:05;;;;;;;73.57;26.27;;;;;;;2.75;41.70;102889.72;4208237;28;20298;-68
2022/03/19 07:11:32;;;;;;;65.00;24.70;;;;;;;2.89;40.72;102891.19;4203091;28;20237;-68
2022/03/19 07:14:01;;;;;;;56.63;23.63;;;;;;;3.04;39.76;102877.69;4215554;28;20232;-65
2022/03/19 07:16:28;;;;;;;65.97;23.57;;;;;;;3.29;38.92;102896.38;4219561;28;20304;-68
2022/03/19 07:18:55;;;;;;;62.90;24.27;;;;;;;3.40;38.33;102890.00;4199123;28;20583;-69
2022/03/19 07:21:22;;;;;;;69.70;23.17;;;;;;;3.57;38.21;102898.34;4199473;28;22438;-70
2022/03/19 07:23:50;;;;;;;55.57;21.50;;;;;;;3.70;36.92;102907.66;4237804;28;20415;-66
2022/03/19 07:26:17;;;;;;;53.60;22.40;;;;;;;3.92;36.87;102904.47;4221205;28;20379;-67
2022/03/19 07:28:43;;;;;;;48.77;19.67;;;;;;;4.25;36.00;102907.06;4211229;28;20965;-71
2022/03/19 07:31:10;;;;;;;45.43;19.13;;;;;;;4.95;33.89;102906.75;4213442;28;20236;-68
2022/03/19 07:33:36;;;;;;;45.73;17.03;;;;;;;5.70;32.19;102912.22;4189279;28;20235;-69
2022/03/19 07:36:04;;;;;;;41.70;17.53;;;;;;;6.63;30.26;102923.06;4212206;28;21841;-68
2022/03/19 07:38:31;;;;;;;38.93;16.93;;;;;;;9.01;26.63;102927.03;4217576;28;20316;-69
2022/03/19 07:43:43;;;;;;;30.10;13.60;;;;;;;12.99;19.61;102952.75;4198301;28;20291;-74
2022/03/19 07:46:11;;;;;;;33.63;15.20;;;;;;;14.55;18.11;102957.41;4228285;28;20232;-73
2022/03/19 07:48:37;;;;;;;29.30;12.67;;;;;;;15.08;16.65;102965.25;4212657;28;20241;-70
2022/03/19 07:51:04;;;;;;;29.30;13.07;;;;;;;15.29;16.37;102968.19;4211910;28;22075;-72
2022/03/19 07:53:30;;;;;;;27.20;13.23;;;;;;;16.61;16.00;102973.31;4220052;28;20240;-74
2022/03/19 07:55:57;;;;;;;32.43;14.80;;;;;;;17.30;14.57;102982.06;4209392;28;20307;-69
2022/03/19 07:58:24;;;;;;;28.47;13.80;;;;;;;16.23;15.01;102972.69;4183960;28;20232;-67
2022/03/19 08:00:50;;;;;;;30.40;13.77;;;;;;;15.70;15.55;102971.41;4230835;28;20287;-66
2022/03/19 08:03:19;;;;;;;27.43;13.30;;;;;;;15.77;15.24;102967.31;4238367;28;20243;-67
2022/03/19 08:05:46;;;;;;;29.73;13.53;;;;;;;16.53;14.88;102979.31;4200155;28;21220;-69
2022/03/19 08:08:14;;;;;;;31.63;12.80;;;;;;;16.38;14.24;102978.66;4200952;28;21800;-66
2022/03/19 08:10:40;;;;;;;24.57;12.00;;;;;;;17.43;13.21;102986.41;4201356;28;21323;-65
2022/03/19 08:13:08;;;;;;;25.87;12.03;;;;;;;17.77;13.41;102983.56;4188499;28;20237;-68
2022/03/19 08:15:38;;;;;;;28.47;11.77;;;;;;;17.42;13.50;102996.34;4202385;28;22160;-66
2022/03/19 08:18:05;;;;;;;28.50;13.93;;;;;;;18.33;12.93;102999.44;4212755;28;20246;-66
2022/03/19 08:20:31;;;;;;;29.53;15.87;;;;;;;17.45;13.71;103006.00;4192965;28;21554;-65
2022/03/19 08:22:58;;;;;;;27.50;14.23;;;;;;;17.63;13.54;102999.09;4197402;28;20244;-69
2022/03/19 08:25:24;;;;;;;34.93;13.37;;;;;;;19.07;12.50;103011.88;4212460;28;20248;-67
2022/03/19 08:27:51;;;;;;;26.33;13.07;;;;;;;18.17;12.49;103004.44;4195549;28;20289;-68
2022/03/19 08:30:18;;;;;;;28.03;12.80;;;;;;;19.45;11.96;103007.53;4205792;28;20398;-66
2022/03/19 08:32:46;;;;;;;29.80;13.20;;;;;;;19.32;11.91;103014.06;4207352;28;20229;-65
2022/03/19 08:35:14;;;;;;;25.07;12.43;;;;;;;19.21;11.92;103016.88;4227767;28;20233;-66
2022/03/19 08:37:45;;;;;;;30.93;13.30;;;;;;;18.92;12.00;103008.72;4208373;28;20227;-66
2022/03/19 08:40:18;;;;;;;27.27;13.53;;;;;;;17.93;12.64;103001.06;4196775;28;21689;-68
2022/03/19 08:42:52;;;;;;;24.93;12.40;;;;;;;16.67;13.76;103000.56;4206986;28;20428;-58
2022/03/19 08:45:22;;;;;;;28.37;12.43;;;;;;;15.56;14.70;102999.28;4205807;28;20311;-66
2022/03/19 08:47:49;;;;;;;29.80;14.73;;;;;;;14.46;16.21;102987.50;4199837;28;20287;-66
2022/03/19 08:50:15;;;;;;;26.13;13.77;;;;;;;13.57;17.06;102984.69;4205138;28;21324;-64
2022/03/19 08:52:42;;;;;;;29.33;15.50;;;;;;;13.13;17.08;102973.25;4194834;28;20656;-71
2022/03/19 08:55:10;;;;;;;37.10;17.23;;;;;;;11.88;18.97;102965.91;4194931;28;20228;-66
2022/03/19 08:57:36;;;;;;;33.27;17.03;;;;;;;10.59;20.27;102966.03;4203172;28;23319;-68
2022/03/19 09:00:05;;;;;;;38.43;16.13;;;;;;;10.09;20.88;102966.84;4218164;28;20240;-66
2022/03/19 09:02:40;;;;;;;38.07;15.40;;;;;;;9.78;21.14;102962.25;4193191;28;20237;-67
2022/03/19 09:05:07;;;;;;;32.10;16.17;;;;;;;9.36;21.90;102960.78;4213880;28;20433;-68
2022/03/19 09:07:34;;;;;;;31.43;15.50;;;;;;;9.78;21.83;102955.13;4212509;28;22591;-66
2022/03/19 09:10:00;;;;;;;32.53;15.13;;;;;;;9.93;21.93;102966.78;4217018;28;20231;-67
2022/03/19 09:12:34;;;;;;;33.77;15.17;;;;;;;10.18;21.30;102960.19;4200583;28;20351;-67
2022/03/19 09:15:00;;;;;;;30.83;15.57;;;;;;;10.44;21.52;102959.72;4210314;28;20441;-64
2022/03/19 09:17:27;;;;;;;30.13;15.52;;;;;;;10.35;21.40;102962.88;4186878;28;22089;-62
2022/03/19 09:19:53;;;;;;;29.50;14.10;;;;;;;10.34;22.66;102966.47;4208820;28;20243;-52
2022/03/19 09:22:20;;;;;;;22.83;10.97;;;;;;;9.15;23.09;102955.56;4204367;28;22144;-64
2022/03/19 09:24:50;;;;;;;22.07;8.57;;;;;;;8.72;22.32;102957.59;4223265;28;20229;-65
2022/03/19 09:27:17;;;;;;;22.03;8.10;;;;;;;8.35;23.04;102956.56;4202011;28;20711;-66
2022/03/19 09:29:43;;;;;;;18.40;8.27;;;;;;;8.51;23.78;102950.63;4214185;28;20220;-67
2022/03/19 09:32:11;;;;;;;21.63;8.63;;;;;;;8.22;24.72;102947.44;4202608;28;20268;-64
2022/03/19 09:34:39;;;;;;;19.53;8.23;;;;;;;8.71;25.59;102955.88;4197611;28;20852;-65
2022/03/19 09:37:06;;;;;;;18.43;8.67;;;;;;;8.78;23.31;102964.41;4199874;28;20244;-64
2022/03/19 09:39:34;;;;;;;17.77;7.87;;;;;;;8.39;23.78;102952.84;4205609;28;20240;-66
2022/03/19 09:42:01;;;;;;;18.23;8.10;;;;;;;8.28;23.72;102949.81;4238163;28;20380;-67
2022/03/19 09:44:28;;;;;;;22.97;7.83;;;;;;;8.46;24.26;102945.50;4207493;28;20684;-64
2022/03/19 09:46:55;;;;;;;21.13;7.60;;;;;;;8.38;23.65;102950.25;4233281;28;20521;-68
2022/03/19 09:49:21;;;;;;;16.37;7.63;;;;;;;8.56;23.76;102948.59;4214504;28;20861;-67
2022/03/19 09:51:53;;;;;;;30.83;8.60;;;;;;;8.85;23.04;102952.59;4210493;28;20268;-64
2022/03/19 09:54:22;;;;;;;20.10;8.00;;;;;;;8.84;23.49;102943.75;4195671;28;23598;-68
2022/03/19 09:56:49;;;;;;;19.30;7.30;;;;;;;8.90;23.53;102955.88;4204282;28;21331;-66
2022/03/19 09:59:15;;;;;;;14.57;6.70;;;;;;;8.50;22.00;102952.41;4200370;28;20245;-66
2022/03/19 10:01:42;;;;;;;16.30;6.90;;;;;;;8.36;23.51;102950.34;4217481;28;20881;-66
2022/03/19 10:04:10;;;;;;;15.23;7.00;;;;;;;8.43;22.67;102949.16;4207141;28;21200;-66
2022/03/19 10:09:42;;;;;;;17.53;6.93;;;;;;;8.49;23.48;102942.72;4219581;28;21383;-66
2022/03/19 10:12:19;;;;;;;17.17;7.70;;;;;;;8.38;23.88;102951.13;4215658;28;21782;-68
2022/03/19 10:14:51;;;;;;;16.13;7.70;;;;;;;8.34;23.45;102946.91;4223067;28;20232;-64
2022/03/19 10:17:32;;;;;;;13.77;6.93;;;;;;;8.44;23.72;102945.56;4217796;28;20228;-69
2022/03/19 10:20:10;;;;;;;16.67;7.37;;;;;;;8.76;22.17;102956.53;4216463;28;22473;-66
2022/03/19 10:22:44;;;;;;;18.10;7.47;;;;;;;8.56;22.15;102951.25;4195080;28;20323;-68
2022/03/19 10:25:13;;;;;;;19.50;8.40;;;;;;;8.27;24.16;102945.44;4217581;28;21360;-66
2022/03/19 10:27:42;;;;;;;15.27;7.37;;;;;;;8.18;24.51;102935.25;4219766;28;20393;-67
2022/03/19 10:30:09;;;;;;;13.20;7.30;;;;;;;8.25;23.12;102944.66;4220897;28;21616;-67
2022/03/19 10:32:40;;;;;;;15.07;7.83;;;;;;;8.37;24.02;102930.81;4214803;28;21374;-68
2022/03/19 10:35:30;;;;;;;16.03;7.47;;;;;;;8.30;24.57;102942.66;4203628;28;20227;-68
2022/03/19 10:37:58;;;;;;;15.50;7.60;;;;;;;8.37;22.84;102936.13;4206337;28;20322;-72
2022/03/19 10:40:42;;;;;;;18.67;7.70;;;;;;;8.63;24.04;102929.66;4220645;28;21549;-70
2022/03/19 10:43:10;;;;;;;15.37;8.20;;;;;;;8.21;23.61;102928.00;4252554;28;20293;-68
2022/03/19 10:45:45;;;;;;;25.03;8.33;;;;;;;8.41;24.41;102919.19;4247875;28;20248;-70
2022/03/19 10:48:13;;;;;;;18.03;8.23;;;;;;;8.57;22.84;102918.47;4212578;28;20254;-69
2022/03/19 10:50:41;;;;;;;20.20;7.70;;;;;;;8.54;22.92;102919.47;4184539;28;22571;-70
2022/03/19 10:53:08;;;;;;;16.17;8.20;;;;;;;8.25;23.50;102920.78;4224511;28;21008;-67
2022/03/19 10:55:35;;;;;;;15.27;7.20;;;;;;;8.38;23.75;102918.41;4228185;28;20228;-68
2022/03/19 10:58:02;;;;;;;17.03;6.97;;;;;;;8.41;23.75;102918.34;4222237;28;20244;-68
2022/03/19 11:00:29;;;;;;;16.50;8.00;;;;;;;8.44;24.56;102919.03;4218442;28;20367;-66
2022/03/19 11:03:00;;;;;;;15.40;7.20;;;;;;;8.49;23.53;102917.97;4215334;28;20454;-66
2022/03/19 11:05:29;;;;;;;21.87;7.30;;;;;;;8.57;22.76;102929.97;4220436;28;20232;-66
2022/03/19 11:07:56;;;;;;;18.73;6.97;;;;;;;8.35;24.06;102914.13;4247938;28;20686;-60
2022/03/19 11:10:23;;;;;;;12.67;6.70;;;;;;;8.54;23.10;102914.16;4213955;28;20240;-65
2022/03/19 11:12:52;;;;;;;13.70;6.40;;;;;;;8.39;22.72;102913.06;4209284;28;22481;-66
2022/03/19 11:15:22;;;;;;;11.87;6.13;;;;;;;8.41;23.41;102911.22;4213230;28;20233;-66
2022/03/19 11:17:50;;;;;;;13.73;6.33;;;;;;;8.60;21.96;102905.06;4209872;28;20287;-68
2022/03/19 11:20:17;;;;;;;16.20;7.10;;;;;;;8.54;22.83;102897.38;4215113;28;20228;-67
2022/03/19 11:22:47;;;;;;;13.83;6.60;;;;;;;8.56;22.68;102903.50;4220461;28;20246;-67
2022/03/19 11:25:30;;;;;;;14.87;6.03;;;;;;;8.62;22.20;102896.09;4233966;28;20448;-69
2022/03/19 11:28:12;;;;;;;12.23;6.40;;;;;;;8.54;21.84;102897.38;4206239;28;20271;-67
2022/03/19 11:30:58;;;;;;;11.80;6.07;;;;;;;8.77;22.40;102894.50;4195042;28;22025;-68